createdAt,value
2022-11-19T00:04:51.336Z,56.50
2022-11-19T00:14:52.791Z,56.40
2022-11-19T00:24:54.290Z,56.37
2022-11-19T00:34:55.784Z,56.45
2022-11-19T00:44:57.159Z,56.70
2022-11-19T00:54:58.688Z,56.71
2022-11-19T01:05:00.074Z,56.88
2022-11-19T01:15:01.703Z,56.54
2022-11-19T01:25:03.110Z,56.57
2022-11-19T01:35:05.187Z,57.05
2022-11-19T01:45:07.595Z,56.79
2022-11-19T01:55:09.107Z,56.82
2022-11-19T02:05:10.473Z,56.66
2022-11-19T02:15:36.528Z,56.77
2022-11-19T02:25:56.046Z,57.13
2022-11-19T02:36:05.922Z,57.22
2022-11-19T02:46:13.238Z,57.07
2022-11-19T02:56:17.518Z,56.93
2022-11-19T03:06:20.787Z,56.79
2022-11-19T03:16:42.722Z,56.67
2022-11-19T03:26:46.714Z,55.82
2022-11-19T03:36:48.433Z,54.88
2022-11-19T03:46:52.399Z,54.14
2022-11-19T03:56:53.796Z,53.76
2022-11-19T04:06:55.300Z,52.75
2022-11-19T04:16:56.886Z,52.64
2022-11-19T04:26:58.375Z,52.71
2022-11-19T04:36:59.802Z,52.26
2022-11-19T04:47:02.381Z,51.95
2022-11-19T04:57:03.806Z,51.75
2022-11-19T05:07:05.309Z,51.89
2022-11-19T05:17:06.882Z,51.58
2022-11-19T05:27:08.259Z,52.33
2022-11-19T05:37:09.720Z,50.66
2022-11-19T05:47:11.302Z,50.44
2022-11-19T05:57:12.725Z,49.50
2022-11-19T06:07:14.270Z,49.49
2022-11-19T06:17:16.201Z,48.89
2022-11-19T06:27:17.575Z,48.26
2022-11-19T06:37:19.503Z,48.11
2022-11-19T06:47:20.975Z,47.08
2022-11-19T06:57:22.453Z,46.64
2022-11-19T07:07:23.898Z,46.00
2022-11-19T07:17:25.467Z,46.20
2022-11-19T07:27:26.872Z,46.27
2022-11-19T07:37:28.269Z,46.27
2022-11-19T07:47:29.747Z,45.86
2022-11-19T07:57:31.160Z,45.92
2022-11-19T08:07:32.603Z,45.69
2022-11-19T08:17:52.573Z,45.13
2022-11-19T08:27:53.950Z,45.61
2022-11-19T08:37:55.384Z,44.29
2022-11-19T08:47:57.136Z,44.96
2022-11-19T08:58:00.387Z,44.57
2022-11-19T09:08:01.977Z,44.33
2022-11-19T09:18:05.348Z,43.96
2022-11-19T09:38:45.417Z,44.11
2022-11-19T09:48:46.868Z,43.29
2022-11-19T09:58:48.412Z,43.70
2022-11-19T10:09:11.302Z,43.15
2022-11-19T10:19:41.331Z,43.06
2022-11-19T10:29:42.707Z,43.72
2022-11-19T10:39:48.008Z,42.37
2022-11-19T10:49:53.868Z,42.57
2022-11-19T10:59:55.243Z,42.03
2022-11-19T11:09:56.772Z,42.43
2022-11-19T11:20:01.110Z,41.69
2022-11-19T11:30:21.166Z,42.29
2022-11-19T11:40:23.235Z,42.25
2022-11-19T11:50:26.050Z,41.88
2022-11-19T12:00:30.395Z,41.13
2022-11-19T12:10:53.456Z,41.83
2022-11-19T12:21:11.466Z,41.28
2022-11-19T12:31:30.318Z,41.06
2022-11-19T12:41:47.953Z,41.25
2022-11-19T12:52:02.824Z,41.11
2022-11-19T13:02:10.771Z,41.18
2022-11-19T13:12:17.296Z,41.61
2022-11-19T13:22:21.876Z,41.45
2022-11-19T13:32:38.893Z,41.24
2022-11-19T13:43:17.573Z,41.26
2022-11-19T13:53:22.272Z,41.74
2022-11-19T14:04:14.591Z,41.90
2022-11-19T14:14:44.332Z,41.75
2022-11-19T14:25:04.021Z,41.77
2022-11-19T14:35:07.270Z,42.36
2022-11-19T14:45:08.482Z,43.13
2022-11-19T14:55:41.373Z,42.47
2022-11-19T15:05:43.909Z,42.60
2022-11-19T15:15:45.826Z,41.99
2022-11-19T15:26:21.288Z,42.04
2022-11-19T15:36:30.021Z,42.63
2022-11-19T15:46:43.846Z,42.64
2022-11-19T15:56:49.078Z,42.90
2022-11-19T16:06:50.981Z,42.93
2022-11-19T16:17:10.819Z,42.86
2022-11-19T16:27:22.981Z,43.08
2022-11-19T16:37:24.925Z,43.42
2022-11-19T16:47:33.620Z,43.54
2022-11-19T16:57:35.078Z,43.74
2022-11-19T17:07:36.919Z,43.84
2022-11-19T17:17:41.104Z,43.70
2022-11-19T17:27:42.791Z,43.90
2022-11-19T17:37:44.342Z,43.12
2022-11-19T17:47:45.715Z,43.31
2022-11-19T17:57:47.116Z,43.41
2022-11-19T18:07:48.537Z,43.33
2022-11-19T18:17:50.099Z,43.34
2022-11-19T18:27:51.503Z,43.33
2022-11-19T18:37:53.053Z,43.42
2022-11-19T18:47:54.522Z,43.37
2022-11-19T18:57:56.116Z,43.53
2022-11-19T19:07:57.778Z,43.45
2022-11-19T19:18:02.395Z,43.86
2022-11-19T19:28:06.447Z,43.58
2022-11-19T19:38:08.021Z,43.77
2022-11-19T19:48:19.981Z,43.62
2022-11-19T19:58:25.247Z,43.54
2022-11-19T20:08:30.901Z,43.53
2022-11-19T20:18:32.980Z,43.63
2022-11-19T20:28:34.468Z,43.72
2022-11-19T20:38:37.289Z,43.47
2022-11-19T20:48:39.099Z,43.81
2022-11-19T20:58:40.581Z,43.94
2022-11-19T21:08:41.969Z,44.22
2022-11-19T21:18:43.716Z,44.12
2022-11-19T21:28:47.017Z,44.15
2022-11-19T21:38:48.416Z,44.12
2022-11-19T21:48:49.802Z,43.93
2022-11-19T21:58:51.319Z,43.68
2022-11-19T22:08:52.849Z,44.00
2022-11-19T22:18:54.253Z,43.92
2022-11-19T22:28:55.707Z,43.79
2022-11-19T22:38:57.099Z,43.84
2022-11-19T22:48:58.461Z,43.80
2022-11-19T22:58:59.846Z,44.00
2022-11-19T23:09:02.179Z,43.83
2022-11-19T23:19:03.720Z,43.45
2022-11-19T23:29:05.109Z,43.71
2022-11-19T23:39:08.010Z,43.64
2022-11-19T23:49:10.490Z,43.79
2022-11-19T23:59:12.435Z,44.14
